Flight Track Log - Related Links

Times and Time Zones

All times are in EDT time to prevent confusion due to time zone crossing. See the JBU527 flight status page for this flight to view local times or setup timezone preferences in your user account.

Time Position Orientation Groundspeed Altitude Reporting Facility
EDT Latitude Longitude Course Direction KTS MPH feet Rate Location/Type
Sat 09:37:40 PM 40.7594 -74.1379 334° Northwest 241 277 2,900  Level FlightAware ADS-B
Sat 09:37:44 PM 40.7632 -74.1412 327° Northwest 245 282 3,000 2,667 Climbing FlightAware ADS-B
Sat 09:37:49 PM 40.7676 -74.1462 319° Northwest 248 285 3,300 3,000 Climbing FlightAware ADS-B
Sat 09:37:52 PM 40.7701 -74.1498 313° West 250 288 3,400 3,000 Climbing FlightAware ADS-B
Sat 09:37:55 PM 40.7723 -74.1538 306° West 252 290 3,600 3,429 Climbing FlightAware ADS-B
Sat 09:37:59 PM 40.7742 -74.1581 300° West 253 291 3,800 3,333 Climbing FlightAware ADS-B
Sat 09:38:04 PM 40.7766 -74.1660 292° West 256 295 4,100 3,333 Climbing FlightAware ADS-B
Sat 09:38:08 PM 40.7777 -74.1719 284° West 257 296 4,300 3,000 Climbing FlightAware ADS-B
Sat 09:38:12 PM 40.7782 -74.1779 276° West 257 296 4,500 3,750 Climbing FlightAware ADS-B
Sat 09:38:16 PM 40.7781 -74.1839 269° West 257 296 4,800 4,286 Climbing FlightAware ADS-B
Sat 09:38:19 PM 40.7775 -74.1898 262° West 257 296 5,000 3,750 Climbing FlightAware ADS-B
Sat 09:38:24 PM 40.7761 -74.1962 254° West 256 295 5,300 4,000 Climbing FlightAware ADS-B
Sat 09:38:28 PM 40.7741 -74.2023 247° West 254 292 5,600 5,000 Climbing FlightAware ADS-B
Sat 09:38:36 PM 40.7686 -74.2126 235° Southwest 251 289 6,300 5,250 Climbing FlightAware ADS-B
Sat 09:38:44 PM 40.7618 -74.2203 221° Southwest 243 280 7,000 5,100 Climbing FlightAware ADS-B
Sat 09:38:56 PM 40.7506 -74.2275 206° Southwest 238 274 8,000 5,333 Climbing FlightAware ADS-B
Sat 09:39:02 PM 40.7441 -74.2296 194° South 237 273 8,600 6,000 Climbing FlightAware ADS-B
Sat 09:39:03 PM 40.7431 -74.2299 193° South 235 270 8,700 5,077 Climbing FlightAware ADS-B
Sat 09:39:15 PM 40.7301 -74.2330 190° South 223 257 9,700 4,286 Climbing FlightAware ADS-B
Sat 09:39:24 PM 40.7216 -74.2350 190° South 224 258 10,200 3,000 Climbing FlightAware ADS-B
Sat 09:39:27 PM 40.7180 -74.2356 187° South 227 261 10,300 1,714 Climbing FlightAware ADS-B
Sat 09:39:31 PM 40.7137 -74.2362 186° South 232 267 10,400 2,294 Climbing FlightAware ADS-B
Sat 09:40:01 PM 40.6801 -74.2379 182° South 255 293 11,600 1,770 Climbing FlightAware ADS-B
Sat 09:40:32 PM 40.6403 -74.2392 181° South 297 342 12,200 1,132 Climbing FlightAware ADS-B
Sat 09:40:54 PM 40.6082 -74.2401 181° South 304 350 12,600 1,400 Climbing FlightAware ADS-B
Sat 09:41:02 PM 40.5965 -74.2402 180° South 329 379 12,900 2,684 Climbing FlightAware ADS-B
Sat 09:41:32 PM 40.5498 -74.2407 180° South 332 382 14,300 2,824 Climbing FlightAware ADS-B
Sat 09:41:53 PM 40.5174 -74.2410 180° South 333 383 15,300 2,800 Climbing FlightAware ADS-B
Sat 09:42:02 PM 40.5036 -74.2412 181° South 334 384 15,700 2,914 Climbing FlightAware ADS-B
Sat 09:42:28 PM 40.4637 -74.2418 181° South 333 383 17,000 3,000 Climbing FlightAware ADS-B
Sat 09:42:32 PM 40.4572 -74.2419 181° South 331 381 17,200 2,229 Climbing FlightAware ADS-B
Sat 09:43:03 PM 40.4100 -74.2429 181° South 341 392 18,300 2,164 Climbing FlightAware ADS-B
Sat 09:43:33 PM 40.3620 -74.2439 181° South 346 398 19,400 2,500 Climbing FlightAware ADS-B
Sat 09:44:03 PM 40.3139 -74.2447 181° South 341 392 20,800 2,500 Climbing FlightAware ADS-B
Sat 09:44:33 PM 40.2665 -74.2457 181° South 342 394 21,900 2,100 Climbing FlightAware ADS-B
Sat 09:45:03 PM 40.2181 -74.2468 181° South 344 396 22,900 1,967 Climbing FlightAware ADS-B
Sat 09:45:34 PM 40.1701 -74.2477 181° South 338 389 23,900 1,048 Climbing FlightAware ADS-B
Sat 09:46:06 PM 40.1208 -74.2489 181° South 336 387 24,000 128 Climbing FlightAware ADS-B
Sat 09:46:21 PM 40.0968 -74.2501 182° South 336 387 24,000  Level FlightAware ADS-B
Sat 09:46:37 PM 40.0726 -74.2535 186° South 333 383 24,000  Level FlightAware ADS-B
Sat 09:46:52 PM 40.0488 -74.2592 190° South 330 380 24,000 766 Level FlightAware ADS-B
Sat 09:47:24 PM 40.0031 -74.2766 196° South 322 371 24,600 1,525 Climbing FlightAware ADS-B
Sat 09:47:51 PM 39.9667 -74.2971 203° Southwest 315 362 25,500 1,837 Climbing FlightAware ADS-B
Sat 09:48:13 PM 39.9390 -74.3175 209° Southwest 314 361 26,100 1,429 Climbing FlightAware ADS-B
Sat 09:48:33 PM 39.9161 -74.3381 215° Southwest 313 360 26,500 1,440 Climbing FlightAware ADS-B
Sat 09:49:03 PM 39.8805 -74.3720 216° Southwest 317 365 27,300 1,475 Climbing FlightAware ADS-B
Sat 09:49:34 PM 39.8428 -74.4077 216° Southwest 321 369 28,000 1,404 Climbing FlightAware ADS-B
Sat 09:49:50 PM 39.8249 -74.4253 217° Southwest 321 369 28,400 1,313 Climbing FlightAware ADS-B
Sat 09:50:06 PM 39.8070 -74.4454 221° Southwest 321 369 28,700 1,149 Climbing FlightAware ADS-B
Sat 09:50:37 PM 39.7739 -74.4890 225° Southwest 324 373 29,300 1,161 Climbing FlightAware ADS-B
Sat 09:51:08 PM 39.7417 -74.5322 226° Southwest 329 379 29,900 1,279 Climbing FlightAware ADS-B
Sat 09:51:38 PM 39.7098 -74.5747 226° Southwest 330 380 30,600 1,217 Climbing FlightAware ADS-B
Sat 09:52:17 PM 39.6669 -74.6312 225° Southwest 335 386 31,300 1,143 Climbing FlightAware ADS-B
Sat 09:53:02 PM 39.6191 -74.6943 225° Southwest 336 387 32,200 1,263 Climbing FlightAware ADS-B
Sat 09:53:33 PM 39.5852 -74.7390 225° Southwest 334 384 32,900 1,279 Climbing FlightAware ADS-B
Sat 09:54:03 PM 39.5527 -74.7818 225° Southwest 332 382 33,500 1,100 Climbing FlightAware ADS-B
Sat 09:54:33 PM 39.5201 -74.8248 226° Southwest 334 384 34,000 933 Climbing FlightAware ADS-B
Sat 09:54:48 PM 39.5034 -74.8450 223° Southwest 337 388 34,200 727 Climbing FlightAware ADS-B
Sat 09:55:06 PM 39.4790 -74.8644 212° Southwest 347 399 34,400 750 Climbing FlightAware ADS-B
Sat 09:55:36 PM 39.4356 -74.8944 208° Southwest 350 403 34,800 689 Climbing FlightAware ADS-B
Sat 09:56:07 PM 39.3922 -74.9244 208° Southwest 353 406 35,100 677 Climbing FlightAware ADS-B
Sat 09:56:38 PM 39.3475 -74.9552 208° Southwest 354 407 35,500 774 Climbing FlightAware ADS-B
Sat 09:57:09 PM 39.3020 -74.9868 208° Southwest 356 410 35,900 484 Climbing FlightAware ADS-B
Sat 09:57:40 PM 39.2574 -75.0174 208° Southwest 351 404 36,000 97 Climbing FlightAware ADS-B
Sat 09:58:11 PM 39.2125 -75.0486 208° Southwest 352 405 36,000  Level FlightAware ADS-B
Sat 09:58:42 PM 39.1685 -75.0791 208° Southwest 356 410 36,000  Level FlightAware ADS-B
Sat 09:59:12 PM 39.1246 -75.1096 208° Southwest 357 411 36,000  Level FlightAware ADS-B
Sat 09:59:42 PM 39.0810 -75.1397 205° Southwest 356 410 36,000  Level FlightAware ADS-B
Sat 10:00:13 PM 39.0367 -75.1701 208° Southwest 356 410 36,000  Level FlightAware ADS-B
Sat 10:00:43 PM 38.9927 -75.2005 208° Southwest 356 410 36,000  Level FlightAware ADS-B
Sat 10:01:13 PM 38.9489 -75.2307 208° Southwest 355 409 36,000  Level FlightAware ADS-B
Sat 10:01:44 PM 38.9051 -75.2607 208° Southwest 355 409 36,000  Level FlightAware ADS-B
Sat 10:02:14 PM 38.8615 -75.2907 208° Southwest 357 411 36,000  Level FlightAware ADS-B
Sat 10:02:45 PM 38.8163 -75.3216 208° Southwest 358 412 36,000  Level FlightAware ADS-B
Sat 10:03:15 PM 38.7721 -75.3518 208° Southwest 359 413 36,000  Level FlightAware ADS-B
Sat 10:04:00 PM 38.7067 -75.3964 208° Southwest 359 413 36,000  Level FlightAware ADS-B
Sat 10:04:30 PM 38.6616 -75.4271 208° Southwest 359 413 36,000  Level FlightAware ADS-B
Sat 10:05:00 PM 38.6175 -75.4570 208° Southwest 358 412 36,000  Level FlightAware ADS-B
Sat 10:05:31 PM 38.5730 -75.4874 208° Southwest 358 412 36,000  Level FlightAware ADS-B
Sat 10:06:01 PM 38.5291 -75.5172 208° Southwest 358 412 36,000  Level FlightAware ADS-B
Sat 10:06:31 PM 38.4848 -75.5471 208° Southwest 358 412 36,000  Level FlightAware ADS-B
Sat 10:07:02 PM 38.4405 -75.5770 208° Southwest 358 412 36,000  Level FlightAware ADS-B
Sat 10:07:33 PM 38.3943 -75.6082 208° Southwest 359 413 36,000  Level FlightAware ADS-B
Sat 10:08:04 PM 38.3496 -75.6384 208° Southwest 359 413 36,000  Level FlightAware ADS-B
Sat 10:08:37 PM 38.2998 -75.6720 208° Southwest 359 413 36,000  Level FlightAware ADS-B
Sat 10:09:09 PM 38.2530 -75.7033 208° Southwest 360 414 36,000  Level FlightAware ADS-B
Sat 10:09:39 PM 38.2088 -75.7331 208° Southwest 361 415 36,000  Level FlightAware ADS-B
Sat 10:10:09 PM 38.1644 -75.7629 208° Southwest 361 415 36,000  Level FlightAware ADS-B
Sat 10:10:40 PM 38.1191 -75.7932 208° Southwest 361 415 36,000  Level FlightAware ADS-B
Sat 10:11:12 PM 38.0721 -75.8247 208° Southwest 362 417 36,000  Level FlightAware ADS-B
Sat 10:11:49 PM 38.0174 -75.8611 208° Southwest 362 417 36,000  Level FlightAware ADS-B
Sat 10:12:19 PM 37.9725 -75.8910 208° Southwest 363 418 36,000  Level FlightAware ADS-B
Sat 10:12:45 PM 37.9344 -75.9164 208° Southwest 363 418 36,000  Level FlightAware ADS-B
Sat 10:13:15 PM 37.8896 -75.9461 208° Southwest 364 419 36,000  Level FlightAware ADS-B
Sat 10:13:45 PM 37.8445 -75.9761 208° Southwest 363 418 36,000  Level FlightAware ADS-B
Sat 10:14:15 PM 37.7997 -76.0057 208° Southwest 363 418 36,000  Level FlightAware ADS-B
Sat 10:14:46 PM 37.7535 -76.0363 208° Southwest 363 418 36,000  Level FlightAware ADS-B
Sat 10:15:18 PM 37.7063 -76.0676 208° Southwest 363 418 36,000  Level FlightAware ADS-B
Sat 10:16:18 PM 37.6170 -76.1264 208° Southwest 363 418 36,000  Level FlightAware ADS-B
Sat 10:16:48 PM 37.5722 -76.1559 208° Southwest 364 419 36,000  Level FlightAware ADS-B
Sat 10:17:19 PM 37.5261 -76.1864 208° Southwest 365 420 36,000  Level FlightAware ADS-B
Sat 10:17:49 PM 37.4811 -76.2160 208° Southwest 366 421 36,000  Level FlightAware ADS-B
Sat 10:18:19 PM 37.4356 -76.2459 208° Southwest 367 422 36,000  Level FlightAware ADS-B
Sat 10:18:50 PM 37.3893 -76.2762 207° Southwest 368 423 36,000  Level FlightAware ADS-B
Sat 10:19:20 PM 37.3440 -76.3058 207° Southwest 367 422 36,000  Level FlightAware ADS-B
Sat 10:19:51 PM 37.2985 -76.3357 208° Southwest 367 422 36,000  Level FlightAware ADS-B
Sat 10:20:21 PM 37.2532 -76.3653 207° Southwest 368 423 36,000  Level FlightAware ADS-B
Sat 10:20:52 PM 37.2058 -76.3960 207° Southwest 368 423 36,000  Level FlightAware ADS-B
Sat 10:21:23 PM 37.1595 -76.4260 207° Southwest 369 425 36,000  Level FlightAware ADS-B
Sat 10:21:53 PM 37.1127 -76.4562 207° Southwest 372 428 36,000  Level FlightAware ADS-B
Sat 10:22:24 PM 37.0658 -76.4866 207° Southwest 372 428 36,000  Level FlightAware ADS-B
Sat 10:22:54 PM 37.0192 -76.5168 207° Southwest 372 428 36,000  Level FlightAware ADS-B
Sat 10:23:27 PM 36.9760 -76.5450 208° Southwest 364 419 36,000  Level FlightAware ADS-B
Sat 10:23:40 PM 36.9496 -76.5619 207° Southwest 372 428 36,000  Level FlightAware ADS-B
Sat 10:24:21 PM 36.8875 -76.6019 207° Southwest 370 426 36,000  Level FlightAware ADS-B
Sat 10:25:32 PM 36.7830 -76.6690 207° Southwest 365 420 36,000  Level FlightAware ADS-B
Sat 10:26:17 PM 36.7220 -76.7080 207° Southwest 366 421 36,000  Level FlightAware ADS-B
Sat 10:26:57 PM 36.6600 -76.7480 207° Southwest 367 422 36,000  Level FlightAware ADS-B
Sat 10:27:37 PM 36.5950 -76.7890 207° Southwest 368 423 36,000  Level FlightAware ADS-B
Sat 10:28:37 PM 36.5060 -76.8460 207° Southwest 376 433 36,000  Level FlightAware ADS-B
Sat 10:29:17 PM 36.4420 -76.8880 208° Southwest 376 433 36,000  Level FlightAware ADS-B
Sat 10:29:57 PM 36.3790 -76.9270 206° Southwest 377 434 36,000  Level FlightAware ADS-B
Sat 10:30:42 PM 36.3110 -76.9700 207° Southwest 378 435 36,000  Level FlightAware ADS-B
Sat 10:31:32 PM 36.2310 -77.0210 207° Southwest 379 436 36,000  Level FlightAware ADS-B
Sat 10:32:12 PM 36.1770 -77.0550 207° Southwest 379 436 36,000  Level FlightAware ADS-B
Sat 10:33:02 PM 36.1110 -77.0970 207° Southwest 379 436 36,000  Level FlightAware ADS-B
Sat 10:33:42 PM 36.0580 -77.1300 207° Southwest 379 436 36,000  Level FlightAware ADS-B
Sat 10:34:22 PM 36.0050 -77.1640 207° Southwest 379 436 36,000  Level FlightAware ADS-B
Sat 10:34:57 PM 35.9030 -77.2270 207° Southwest 386 444 36,000  Level FlightAware ADS-B
Sat 10:35:47 PM 35.8240 -77.2770 207° Southwest 388 447 36,000  Level FlightAware ADS-B
Sat 10:36:57 PM 35.7240 -77.3390 207° Southwest 381 438 36,000  Level FlightAware ADS-B
Sat 10:37:37 PM 35.6700 -77.3730 207° Southwest 381 438 36,000  Level FlightAware ADS-B
Sat 10:38:17 PM 35.6170 -77.4060 207° Southwest 381 438 36,000  Level FlightAware ADS-B
Sat 10:39:07 PM 35.5500 -77.4480 207° Southwest 381 438 36,000  Level FlightAware ADS-B
Sat 10:39:47 PM 35.4970 -77.4820 208° Southwest 381 438 36,000  Level FlightAware ADS-B
Sat 10:40:27 PM 35.4430 -77.5150 206° Southwest 381 438 36,000  Level FlightAware ADS-B
Sat 10:41:07 PM 35.3900 -77.5480 207° Southwest 381 438 36,000  Level FlightAware ADS-B
Sat 10:41:47 PM 35.3370 -77.5820 208° Southwest 381 438 36,000  Level FlightAware ADS-B
Sat 10:42:27 PM 35.2830 -77.6150 207° Southwest 381 438 36,000  Level FlightAware ADS-B
Sat 10:43:17 PM 35.2160 -77.6570 207° Southwest 381 438 36,000  Level FlightAware ADS-B
Sat 10:43:57 PM 35.1630 -77.6900 207° Southwest 381 438 36,000  Level FlightAware ADS-B
Sat 10:44:37 PM 35.1100 -77.7230 207° Southwest 381 438 36,000  Level FlightAware ADS-B
Sat 10:45:17 PM 35.0560 -77.7570 207° Southwest 381 438 36,000  Level FlightAware ADS-B
Sat 10:45:57 PM 35.0030 -77.7900 207° Southwest 381 438 36,000  Level FlightAware ADS-B
Sat 10:46:35 PM 34.8872 -78.0556 207° Southwest 383 441 36,000 -61 Level Washington Center
Sat 10:47:35 PM 34.7997 -78.1517 222° Southwest 383 441 35,900 -37 Descending Washington Center
Sat 10:49:16 PM 34.6661 -78.2911 221° Southwest 381 438 35,900 38 Level Jacksonville Center
Sat 10:50:15 PM 34.5858 -78.3736 220° Southwest 381 438 36,000 50 Climbing Jacksonville Center
Sat 10:51:15 PM 34.5069 -78.4456 217° Southwest 381 438 36,000  Level Jacksonville Center
Sat 10:52:15 PM 34.4244 -78.5328 221° Southwest 390 449 36,000  Level Jacksonville Center
Sat 10:53:15 PM 34.3417 -78.6150 219° Southwest 390 449 36,000  Level Jacksonville Center
Sat 10:54:16 PM 34.2572 -78.7022 220° Southwest 395 455 36,000  Level Jacksonville Center
Sat 10:55:16 PM 34.1722 -78.7864 219° Southwest 395 455 36,000 -50 Level Jacksonville Center
Sat 10:56:16 PM 34.0894 -78.8681 219° Southwest 395 455 35,900 -50 Descending Jacksonville Center
Sat 10:57:16 PM 34.0083 -78.9494 220° Southwest 390 449 35,900 50 Level Jacksonville Center
Sat 10:58:16 PM 33.9233 -79.0333 219° Southwest 390 449 36,000 50 Climbing Jacksonville Center
Sat 10:59:15 PM 33.8403 -79.1144 219° Southwest 390 449 36,000  Level Jacksonville Center
Sat 11:05:12 PM 33.3510 -79.5960 219° Southwest 385 443 36,000  Level FlightAware ADS-B
Sat 11:06:17 PM 33.2610 -79.6840 219° Southwest 383 441 36,000 -48 Level FlightAware ADS-B
Sat 11:07:16 PM 33.1881 -79.7528 219° Southwest 389 448 35,900  Descending Jacksonville Center
Sat 11:08:16 PM 33.1044 -79.8350 219° Southwest 389 448 36,000 50 Climbing Jacksonville Center
Sat 11:09:15 PM 33.0228 -79.9122 218° Southwest 389 448 36,000  Level Jacksonville Center
Sat 11:10:16 PM 32.9411 -79.9892 218° Southwest 389 448 36,000  Level Jacksonville Center
Sat 11:11:16 PM 32.8469 -80.0714 216° Southwest 389 448 36,000 -50 Level Jacksonville Center
Sat 11:12:16 PM 32.7544 -80.1383 211° Southwest 389 448 35,900 -50 Descending Jacksonville Center
Sat 11:13:16 PM 32.6661 -80.2053 213° Southwest 389 448 35,900 15 Level Jacksonville Center
Sat 11:18:52 PM 32.1580 -80.5780 213° Southwest 387 445 36,000 16 Climbing FlightAware ADS-B
Sat 11:19:32 PM 32.1060 -80.6160 212° Southwest 387 445 36,000  Level FlightAware ADS-B
Sat 11:20:12 PM 32.0540 -80.6540 212° Southwest 387 445 36,000  Level FlightAware ADS-B
Sat 11:20:52 PM 32.0030 -80.6920 212° Southwest 387 445 36,000  Level FlightAware ADS-B
Sat 11:21:42 PM 31.9380 -80.7400 212° Southwest 387 445 36,000  Level FlightAware ADS-B
Sat 11:22:07 PM 31.8160 -80.7100 168° South 36,000  Level FlightAware ADS-B
Sat 11:23:37 PM 31.6440 -80.7330 186° South 420 483 36,000  Level FlightAware ADS-B
Sat 11:24:27 PM 31.5460 -80.7470 187° South 419 482 36,000  Level FlightAware ADS-B
Sat 11:25:07 PM 31.4820 -80.7560 187° South 420 483 36,000  Level FlightAware ADS-B
Sat 11:26:02 PM 31.3680 -80.7710 186° South 422 486 36,000  Level FlightAware ADS-B
Sat 11:26:42 PM 31.3020 -80.7790 186° South 422 486 36,000  Level FlightAware ADS-B
Sat 11:27:32 PM 31.2200 -80.7890 186° South 422 486 36,000  Level FlightAware ADS-B
Sat 11:28:12 PM 31.1140 -80.8060 188° South 421 484 36,000  Level FlightAware ADS-B
Sat 11:28:52 PM 31.0480 -80.8140 186° South 421 484 36,000  Level FlightAware ADS-B
Sat 11:29:32 PM 30.9830 -80.8220 186° South 421 484 36,000  Level FlightAware ADS-B
Sat 11:30:12 PM 30.9170 -80.8300 186° South 421 484 36,000  Level FlightAware ADS-B
Sat 11:31:02 PM 30.8340 -80.8400 186° South 421 484 36,000  Level FlightAware ADS-B
Sat 11:31:42 PM 30.7690 -80.8480 186° South 421 484 36,000  Level FlightAware ADS-B
Sat 11:32:22 PM 30.7030 -80.8560 186° South 421 484 36,000  Level FlightAware ADS-B
Sat 11:33:02 PM 30.6370 -80.8640 186° South 421 484 36,000  Level FlightAware ADS-B
Sat 11:33:42 PM 30.5710 -80.8720 186° South 421 484 36,000  Level FlightAware ADS-B
Sat 11:34:32 PM 30.4890 -80.8820 186° South 421 484 36,000  Level FlightAware ADS-B
Sat 11:35:12 PM 30.4230 -80.8900 186° South 421 484 36,000  Level FlightAware ADS-B
Sat 11:35:52 PM 30.3570 -80.8980 186° South 421 484 36,000  Level FlightAware ADS-B
Sat 11:36:32 PM 30.2910 -80.9060 186° South 421 484 36,000  Level FlightAware ADS-B
Sat 11:37:12 PM 30.2250 -80.9140 186° South 421 484 36,000 -5,538 Level FlightAware ADS-B
Sat 11:38:16 PM 29.9347 -80.9703 186° South 418 481 26,400 -2,734 Descending Jacksonville Center
Sat 11:43:47 PM 29.3420 -81.0460 186° South 371 427 18,000 -1,420 Descending FlightAware ADS-B
Sat 11:44:32 PM 29.2740 -81.0540 186° South 358 412 17,500 -353 Descending FlightAware ADS-B
Sat 11:45:12 PM 29.2180 -81.0610 186° South 358 412 17,500 -1,958 Level FlightAware ADS-B
Sat 11:46:07 PM 29.1190 -81.0750 187° South 343 395 14,400 -3,000 Descending FlightAware ADS-B
Sat 11:46:52 PM 29.0450 -81.0850 187° South 328 377 12,500 -1,765 Descending FlightAware ADS-B
Sat 11:47:32 PM 28.9760 -81.0920 185° South 328 377 11,900 -1,129 Descending FlightAware ADS-B
Sat 11:48:17 PM 28.9120 -81.1030 189° South 329 379 10,900 -1,412 Descending FlightAware ADS-B
Sat 11:48:57 PM 28.8500 -81.1130 188° South 310 357 9,900 -1,200 Descending FlightAware ADS-B
Sat 11:49:27 PM 28.8120 -81.1200 189° South 309 356 9,500 -857 Descending FlightAware ADS-B
Sat 11:50:07 PM 28.7520 -81.1290 187° South 292 336 8,900 -514 Descending FlightAware ADS-B
Sat 11:50:37 PM 28.7130 -81.1350 188° South 292 336 8,900  Level FlightAware ADS-B
Sat 11:51:02 PM 28.6790 -81.1410 189° South 290 334 8,900  Level FlightAware ADS-B
Sat 11:51:32 PM 28.6370 -81.1480 188° South 289 333 8,900  Level FlightAware ADS-B
Sat 11:52:02 PM 28.5970 -81.1540 188° South 290 334 8,900  Level FlightAware ADS-B
Sat 11:52:27 PM 28.5630 -81.1600 189° South 291 335 8,900  Level FlightAware ADS-B
Sat 11:52:57 PM 28.5230 -81.1660 188° South 292 336 8,900 -218 Level FlightAware ADS-B
Sat 11:53:22 PM 28.4890 -81.1720 189° South 289 333 8,700 -982 Descending FlightAware ADS-B
Sat 11:53:52 PM 28.4510 -81.1780 188° South 280 322 8,000 -1,527 Descending FlightAware ADS-B
Sat 11:54:17 PM 28.4170 -81.1830 187° South 280 322 7,300 -1,650 Descending FlightAware ADS-B
Sat 11:54:32 PM 28.3970 -81.1860 188° South 279 321 6,900 -1,333 Descending FlightAware ADS-B
Sat 11:55:02 PM 28.3580 -81.1870 181° South 272 313 6,300 -1,400 Descending FlightAware ADS-B
Sat 11:55:32 PM 28.3180 -81.1870 180° South 272 313 5,500 -1,418 Descending FlightAware ADS-B
Sat 11:55:57 PM 28.2870 -81.1950 193° South 269 310 5,000 -900 Descending FlightAware ADS-B
Sat 11:56:12 PM 28.2760 -81.2090 228° Southwest 253 291 4,900 -400 Descending FlightAware ADS-B
Sat 11:56:27 PM 28.2710 -81.2270 252° West 243 280 4,800 -600 Descending FlightAware ADS-B
Sat 11:56:52 PM 28.2690 -81.2590 266° West 222 255 4,500 -800 Descending FlightAware ADS-B
Sat 11:57:12 PM 28.2670 -81.2820 264° West 211 243 4,200 -1,600 Descending FlightAware ADS-B
Sat 11:57:52 PM 28.2760 -81.3190 285° West 200 230 2,900 -2,040 Descending FlightAware ADS-B
Sat 11:58:02 PM 28.2850 -81.3220 344° North 192 221 2,500 -1,371 Descending FlightAware ADS-B
Sat 11:58:27 PM 28.3060 -81.3210 North 166 191 2,100 -933 Descending FlightAware ADS-B
Sat 11:58:47 PM 28.3210 -81.3210 360° North 147 169 1,800 -800 Descending FlightAware ADS-B
Sat 11:59:12 PM 28.3380 -81.3210 360° North 130 150 1,500 -655 Descending FlightAware ADS-B
Sat 11:59:42 PM 28.3560 -81.3210 360° North 131 151 1,200 -700 Descending FlightAware ADS-B
Sun 12:00:12 AM 28.3750 -81.3210 360° North 132 152 800 -655 Descending FlightAware ADS-B
Sun 12:00:37 AM 28.3900 -81.3220 357° North 132 152 600 -655 Descending FlightAware ADS-B
Sun 12:01:07 AM 28.4080 -81.3220 360° North 130 150 200 -800 Descending FlightAware ADS-B
Sun 12:01:27 AM 28.4200 -81.3220 360° North 128 147 -600 Descending FlightAware ADS-B

Login

Don't have an account? Register now (free) for customized features, flight alerts, and more!